createdAt,value
2023-04-15T00:01:19.654Z,2.53
2023-04-15T00:03:54.616Z,2.70
2023-04-15T00:06:27.585Z,2.33
2023-04-15T00:09:00.906Z,2.75
2023-04-15T00:11:33.800Z,3.03
2023-04-15T00:14:07.420Z,3.70
2023-04-15T00:16:40.088Z,4.25
2023-04-15T00:19:13.159Z,4.80
2023-04-15T00:21:45.885Z,4.30
2023-04-15T00:24:18.396Z,4.03
2023-04-15T00:26:50.898Z,4.07
2023-04-15T00:29:23.495Z,4.07
2023-04-15T00:31:59.767Z,3.47
2023-04-15T00:34:32.433Z,3.42
2023-04-15T00:37:04.921Z,4.18
2023-04-15T00:39:37.466Z,4.13
2023-04-15T00:42:10.627Z,3.45
2023-04-15T00:44:43.159Z,4.47
2023-04-15T00:47:18.188Z,4.05
2023-04-15T00:49:51.053Z,3.67
2023-04-15T00:52:23.660Z,3.67
2023-04-15T00:54:56.177Z,4.68
2023-04-15T00:57:29.162Z,3.97
2023-04-15T01:00:02.591Z,3.22
2023-04-15T01:02:39.329Z,3.97
2023-04-15T01:05:12.109Z,3.83
2023-04-15T01:07:44.647Z,3.78
2023-04-15T01:10:17.449Z,4.00
2023-04-15T01:12:49.965Z,3.35
2023-04-15T01:15:23.005Z,3.67
2023-04-15T01:17:55.858Z,3.63
2023-04-15T01:20:29.712Z,3.58
2023-04-15T01:23:02.660Z,4.10
2023-04-15T01:25:35.517Z,4.38
2023-04-15T01:28:09.481Z,3.60
2023-04-15T01:30:42.198Z,4.25
2023-04-15T01:33:14.810Z,4.15
2023-04-15T01:35:47.807Z,4.45
2023-04-15T01:38:20.521Z,3.92
2023-04-15T01:40:53.276Z,4.25
2023-04-15T01:43:26.866Z,4.10
2023-04-15T01:45:59.353Z,4.10
2023-04-15T01:48:32.418Z,4.00
2023-04-15T01:51:05.070Z,3.50
2023-04-15T01:53:37.676Z,3.85
2023-04-15T01:56:10.280Z,3.80
2023-04-15T01:58:42.782Z,3.80
2023-04-15T02:01:16.874Z,3.55
2023-04-15T02:03:49.624Z,3.92
2023-04-15T02:06:22.264Z,3.92
2023-04-15T02:08:54.772Z,3.50
2023-04-15T02:11:27.277Z,3.58
2023-04-15T02:13:59.804Z,3.80
2023-04-15T02:16:33.703Z,4.20
2023-04-15T02:19:06.264Z,4.25
2023-04-15T02:21:38.851Z,4.00
2023-04-15T02:24:12.326Z,4.05
2023-04-15T02:26:44.985Z,3.92
2023-04-15T02:29:17.558Z,4.72
2023-04-15T02:31:50.190Z,5.32
2023-04-15T02:34:22.774Z,4.15
2023-04-15T02:36:57.203Z,4.30
2023-04-15T02:39:29.801Z,4.28
2023-04-15T02:42:02.714Z,4.20
2023-04-15T02:44:36.516Z,4.72
2023-04-15T02:47:09.092Z,4.20
2023-04-15T02:49:41.783Z,3.83
2023-04-15T02:52:14.399Z,4.70
2023-04-15T02:54:46.882Z,3.90
2023-04-15T02:57:19.405Z,4.43
2023-04-15T02:59:51.949Z,4.80
2023-04-15T03:02:24.738Z,4.38
2023-04-15T03:04:57.392Z,4.70
2023-04-15T03:07:31.042Z,4.20
2023-04-15T03:10:03.734Z,4.68
2023-04-15T03:12:36.234Z,4.75
2023-04-15T03:15:09.884Z,3.80
2023-04-15T03:17:42.639Z,3.75
2023-04-15T03:20:15.760Z,4.25
2023-04-15T03:22:48.377Z,4.38
2023-04-15T03:25:20.953Z,3.63
2023-04-15T03:27:53.419Z,3.83
2023-04-15T03:30:26.187Z,3.97
2023-04-15T03:32:58.755Z,4.90
2023-04-15T03:35:31.377Z,4.10
2023-04-15T03:38:03.942Z,4.22
2023-04-15T03:40:36.680Z,3.78
2023-04-15T03:43:09.284Z,4.38
2023-04-15T03:45:42.108Z,4.25
2023-04-15T03:48:17.241Z,4.20
2023-04-15T03:50:50.905Z,3.83
2023-04-15T03:53:23.553Z,4.22
2023-04-15T03:55:56.094Z,3.88
2023-04-15T03:58:28.643Z,4.00
2023-04-15T04:01:01.115Z,4.50
2023-04-15T04:03:33.843Z,4.47
2023-04-15T04:06:06.738Z,4.35
2023-04-15T04:08:39.201Z,4.00
2023-04-15T04:11:11.761Z,3.70
2023-04-15T04:13:44.315Z,4.60
2023-04-15T04:16:17.278Z,3.92
2023-04-15T04:18:50.310Z,4.05
2023-04-15T04:21:22.998Z,4.68
2023-04-15T04:23:56.788Z,4.93
2023-04-15T04:26:29.315Z,4.47
2023-04-15T04:29:02.063Z,3.97
2023-04-15T04:31:34.921Z,4.18
2023-04-15T04:34:07.786Z,4.18
2023-04-15T04:36:40.484Z,4.35
2023-04-15T04:39:13.068Z,4.82
2023-04-15T04:41:45.762Z,4.18
2023-04-15T04:44:18.593Z,4.43
2023-04-15T04:46:51.159Z,3.97
2023-04-15T04:49:23.702Z,4.35
2023-04-15T04:51:57.453Z,4.28
2023-04-15T04:54:31.199Z,4.35
2023-04-15T04:57:03.751Z,4.22
2023-04-15T04:59:36.594Z,5.43
2023-04-15T05:02:09.244Z,4.90
2023-04-15T05:04:41.792Z,4.97
2023-04-15T05:07:14.281Z,4.63
2023-04-15T05:09:47.392Z,4.38
2023-04-15T05:12:19.954Z,4.65
2023-04-15T05:14:52.523Z,4.25
2023-04-15T05:17:25.129Z,4.45
2023-04-15T05:19:57.614Z,4.70
2023-04-15T05:22:30.065Z,4.93
2023-04-15T05:25:02.688Z,3.90
2023-04-15T05:27:35.590Z,4.85
2023-04-15T05:30:08.927Z,5.55
2023-04-15T05:32:41.569Z,4.50
2023-04-15T05:35:14.277Z,4.43
2023-04-15T05:37:46.862Z,4.65
2023-04-15T05:40:20.082Z,4.63
2023-04-15T05:42:52.600Z,4.07
2023-04-15T05:45:25.106Z,4.18
2023-04-15T05:47:57.668Z,4.85
2023-04-15T05:50:30.484Z,4.68
2023-04-15T05:53:03.104Z,4.47
2023-04-15T05:55:35.624Z,4.13
2023-04-15T05:58:08.140Z,4.22
2023-04-15T06:00:40.730Z,4.20
2023-04-15T06:03:13.602Z,5.00
2023-04-15T06:05:46.179Z,4.47
2023-04-15T06:08:19.266Z,4.38
2023-04-15T06:10:51.784Z,4.30
2023-04-15T06:13:24.368Z,4.15
2023-04-15T06:15:56.863Z,4.93
2023-04-15T06:18:29.443Z,4.80
2023-04-15T06:21:02.024Z,4.90
2023-04-15T06:23:41.105Z,4.45
2023-04-15T06:26:13.694Z,5.15
2023-04-15T06:28:46.214Z,4.80
2023-04-15T06:31:18.783Z,4.78
2023-04-15T06:33:51.338Z,5.10
2023-04-15T06:36:23.844Z,4.90
2023-04-15T06:38:56.992Z,4.57
2023-04-15T06:41:29.698Z,4.82
2023-04-15T06:44:02.555Z,5.15
2023-04-15T06:46:35.162Z,4.97
2023-04-15T06:49:08.113Z,5.45
2023-04-15T06:51:42.759Z,5.30
2023-04-15T06:54:16.299Z,4.63
2023-04-15T06:56:49.015Z,5.07
2023-04-15T06:59:21.577Z,4.75
2023-04-15T07:01:54.249Z,5.18
2023-04-15T07:04:27.828Z,4.95
2023-04-15T07:07:00.708Z,5.03
2023-04-15T07:09:34.204Z,4.82
2023-04-15T07:12:06.730Z,5.00
2023-04-15T07:14:39.271Z,5.13
2023-04-15T07:17:12.285Z,5.70
2023-04-15T07:19:44.816Z,5.00
2023-04-15T07:22:17.319Z,5.07
2023-04-15T07:24:49.806Z,5.15
2023-04-15T07:27:22.404Z,5.00
2023-04-15T07:29:54.894Z,4.70
2023-04-15T07:32:27.421Z,4.68
2023-04-15T07:35:00.164Z,4.72
2023-04-15T07:37:33.537Z,5.25
2023-04-15T07:40:07.388Z,4.93
2023-04-15T07:42:41.438Z,4.75
2023-04-15T07:45:14.072Z,4.10
2023-04-15T07:47:46.976Z,3.92
2023-04-15T07:50:19.814Z,4.30
2023-04-15T07:52:52.898Z,3.78
2023-04-15T07:55:26.208Z,4.35
2023-04-15T07:58:00.414Z,3.55
2023-04-15T08:00:32.917Z,4.78
2023-04-15T08:03:05.899Z,4.03
2023-04-15T08:05:38.533Z,4.60
2023-04-15T08:08:11.062Z,3.65
2023-04-15T08:10:43.698Z,3.55
2023-04-15T08:13:16.719Z,3.88
2023-04-15T08:16:23.514Z,3.55
2023-04-15T08:18:57.789Z,3.83
2023-04-15T08:21:30.997Z,3.80
2023-04-15T08:24:03.884Z,3.42
2023-04-15T08:26:36.438Z,3.30
2023-04-15T08:29:09.332Z,4.05
2023-04-15T08:31:41.913Z,3.47
2023-04-15T08:34:15.714Z,3.50
2023-04-15T08:36:48.408Z,3.53
2023-04-15T08:39:20.954Z,2.97
2023-04-15T08:42:02.745Z,4.25
2023-04-15T08:44:36.862Z,4.25
2023-04-15T08:47:13.066Z,3.40
2023-04-15T08:49:46.708Z,2.95
2023-04-15T08:52:20.161Z,2.72
2023-04-15T08:54:58.487Z,2.08
2023-04-15T08:57:32.177Z,2.47
2023-04-15T09:00:06.050Z,2.53
2023-04-15T09:02:39.210Z,2.42
2023-04-15T09:05:12.248Z,2.45
2023-04-15T09:07:44.970Z,3.30
2023-04-15T09:10:17.921Z,2.15
2023-04-15T09:12:50.465Z,2.55
2023-04-15T09:15:27.383Z,2.40
2023-04-15T09:17:59.940Z,2.42
2023-04-15T09:20:42.315Z,2.40
2023-04-15T09:23:17.445Z,2.50
2023-04-15T09:25:50.475Z,2.10
2023-04-15T09:28:26.537Z,3.10
2023-04-15T09:31:01.238Z,2.53
2023-04-15T09:33:33.835Z,2.35
2023-04-15T09:36:06.845Z,2.60
2023-04-15T09:38:57.291Z,2.22
2023-04-15T09:41:29.845Z,1.88
2023-04-15T09:44:02.452Z,2.13
2023-04-15T09:46:45.453Z,1.75
2023-04-15T09:49:18.246Z,2.10
2023-04-15T09:52:01.712Z,2.20
2023-04-15T09:54:42.073Z,2.40
2023-04-15T09:57:14.581Z,2.10
2023-04-15T09:59:47.923Z,2.00
2023-04-15T10:02:23.473Z,1.95
2023-04-15T10:04:57.669Z,1.88
2023-04-15T10:07:30.795Z,1.98
2023-04-15T10:10:05.365Z,2.20
2023-04-15T10:12:41.458Z,2.03
2023-04-15T10:15:19.021Z,2.33
2023-04-15T10:17:56.360Z,2.60
2023-04-15T10:20:30.507Z,2.00
2023-04-15T10:23:03.678Z,2.53
2023-04-15T10:25:37.778Z,2.33
2023-04-15T10:28:11.331Z,2.25
2023-04-15T10:30:46.297Z,2.10
2023-04-15T10:33:23.827Z,1.85
2023-04-15T10:35:57.674Z,2.05
2023-04-15T10:38:42.681Z,2.22
2023-04-15T10:41:25.188Z,1.80
2023-04-15T10:44:04.656Z,1.17
2023-04-15T10:46:43.933Z,1.40
2023-04-15T10:49:25.396Z,1.40
2023-04-15T10:51:59.755Z,1.00
2023-04-15T10:54:33.680Z,1.40
2023-04-15T10:57:06.534Z,1.85
2023-04-15T11:00:00.008Z,1.70
2023-04-15T11:02:58.188Z,1.80
2023-04-15T11:05:43.165Z,1.85
2023-04-15T11:08:16.703Z,1.70
2023-04-15T11:10:51.325Z,1.85
2023-04-15T11:13:27.068Z,1.65
2023-04-15T11:18:34.916Z,1.30
2023-04-15T11:21:09.469Z,1.67
2023-04-15T11:23:46.781Z,1.50
2023-04-15T11:26:19.502Z,1.40
2023-04-15T11:28:52.637Z,1.77
2023-04-15T11:31:28.675Z,1.80
2023-04-15T11:34:02.839Z,1.42
2023-04-15T11:36:35.458Z,1.75
2023-04-15T11:39:08.068Z,1.70
2023-04-15T11:41:43.270Z,1.38
2023-04-15T11:44:19.014Z,1.60
2023-04-15T11:46:51.538Z,1.70
2023-04-15T11:49:33.898Z,1.52
2023-04-15T11:52:12.802Z,1.55
2023-04-15T11:54:45.395Z,1.58
2023-04-15T11:57:18.209Z,1.45
2023-04-15T11:59:55.506Z,1.63
2023-04-15T12:02:32.407Z,1.85
2023-04-15T12:05:06.736Z,2.10
2023-04-15T12:08:00.652Z,1.45
2023-04-15T12:10:33.217Z,1.63
2023-04-15T12:13:09.973Z,1.45
2023-04-15T12:15:43.607Z,1.25
2023-04-15T12:18:19.748Z,1.27
2023-04-15T12:20:52.306Z,1.23
2023-04-15T12:23:24.850Z,1.40
2023-04-15T12:25:57.555Z,1.50
2023-04-15T12:28:31.047Z,2.13
2023-04-15T12:31:11.103Z,1.63
2023-04-15T12:33:43.720Z,1.60
2023-04-15T12:36:18.133Z,1.70
2023-04-15T12:38:50.911Z,1.35
2023-04-15T12:41:24.436Z,1.60
2023-04-15T12:43:59.587Z,1.40
2023-04-15T12:46:32.594Z,1.48
2023-04-15T12:49:05.190Z,1.40
2023-04-15T12:51:37.732Z,1.40
2023-04-15T12:54:10.304Z,1.48
2023-04-15T12:56:43.411Z,1.63
2023-04-15T12:59:18.715Z,1.38
2023-04-15T13:01:53.345Z,1.38
2023-04-15T13:04:26.163Z,1.30
2023-04-15T13:06:58.941Z,1.55
2023-04-15T13:09:31.505Z,1.30
2023-04-15T13:12:05.404Z,1.10
2023-04-15T13:14:37.931Z,1.17
2023-04-15T13:17:11.442Z,1.20
2023-04-15T13:19:43.963Z,1.30
2023-04-15T13:22:16.467Z,1.25
2023-04-15T13:24:49.535Z,1.10
2023-04-15T13:27:22.383Z,1.27
2023-04-15T13:29:55.014Z,1.27
2023-04-15T13:32:27.574Z,1.40
2023-04-15T13:35:00.184Z,1.48
2023-04-15T13:37:32.782Z,0.90
2023-04-15T13:40:07.426Z,0.98
2023-04-15T13:42:39.985Z,1.30
2023-04-15T13:45:12.670Z,1.50
2023-04-15T13:47:45.301Z,1.33
2023-04-15T13:50:17.888Z,0.82
2023-04-15T13:52:50.757Z,1.33
2023-04-15T13:55:26.430Z,1.48
2023-04-15T13:58:02.350Z,2.10
2023-04-15T14:00:34.904Z,1.30
2023-04-15T14:03:07.832Z,1.27
2023-04-15T14:05:41.224Z,1.33
2023-04-15T14:08:17.221Z,1.33
2023-04-15T14:10:49.824Z,1.10
2023-04-15T14:13:28.802Z,0.93
2023-04-15T14:16:01.545Z,1.02
2023-04-15T14:18:34.156Z,0.98
2023-04-15T14:21:07.123Z,0.73
2023-04-15T14:23:42.355Z,0.80
2023-04-15T14:26:15.003Z,0.90
2023-04-15T14:28:48.578Z,1.20
2023-04-15T14:31:21.279Z,1.35
2023-04-15T14:33:53.990Z,0.88
2023-04-15T14:36:27.403Z,1.33
2023-04-15T14:39:06.909Z,1.50
2023-04-15T14:41:39.563Z,1.40
2023-04-15T14:44:12.160Z,0.82
2023-04-15T14:46:47.814Z,0.55
2023-04-15T14:51:52.993Z,1.00
2023-04-15T14:54:25.733Z,0.98
2023-04-15T14:56:58.302Z,0.77
2023-04-15T14:59:30.996Z,1.08
2023-04-15T15:02:04.050Z,0.70
2023-04-15T15:04:37.010Z,1.33
2023-04-15T15:07:09.575Z,1.10
2023-04-15T15:09:43.294Z,1.20
2023-04-15T15:12:16.046Z,0.88
2023-04-15T15:14:48.714Z,0.70
2023-04-15T15:17:21.428Z,0.52
2023-04-15T15:19:53.949Z,1.15
2023-04-15T15:22:29.283Z,0.75
2023-04-15T15:25:04.407Z,1.20
2023-04-15T15:27:38.323Z,0.65
2023-04-15T15:30:12.598Z,0.50
2023-04-15T15:32:45.376Z,0.80
2023-04-15T15:35:18.132Z,0.52
2023-04-15T15:37:50.785Z,1.15
2023-04-15T15:40:25.834Z,0.80
2023-04-15T15:43:00.471Z,0.70
2023-04-15T15:45:33.161Z,0.52
2023-04-15T15:48:06.230Z,0.80
2023-04-15T15:50:39.052Z,0.70
2023-04-15T15:53:15.303Z,0.65
2023-04-15T15:55:48.408Z,0.90
2023-04-15T15:58:21.072Z,0.80
2023-04-15T16:00:53.732Z,1.15
2023-04-15T16:03:26.470Z,0.90
2023-04-15T16:06:00.658Z,0.75
2023-04-15T16:08:33.178Z,0.65
2023-04-15T16:11:05.745Z,0.50
2023-04-15T16:13:38.950Z,0.63
2023-04-15T16:16:11.657Z,0.52
2023-04-15T16:18:44.295Z,0.70
2023-04-15T16:21:16.895Z,0.73
2023-04-15T16:23:49.436Z,0.80
2023-04-15T16:26:22.252Z,1.20
2023-04-15T16:28:57.626Z,0.70
2023-04-15T16:31:30.549Z,0.70
2023-04-15T16:34:03.232Z,1.40
2023-04-15T16:36:36.154Z,0.90
2023-04-15T16:39:08.679Z,1.10
2023-04-15T16:41:43.945Z,1.67
2023-04-15T16:44:16.663Z,0.73
2023-04-15T16:46:49.238Z,0.82
2023-04-15T16:49:21.873Z,0.82
2023-04-15T16:51:54.802Z,1.10
2023-04-15T16:54:29.104Z,0.68
2023-04-15T16:57:02.560Z,1.00
2023-04-15T16:59:35.065Z,0.68
2023-04-15T17:02:13.662Z,0.80
2023-04-15T17:04:46.478Z,0.80
2023-04-15T17:07:18.981Z,0.80
2023-04-15T17:09:52.763Z,0.80
2023-04-15T17:12:27.009Z,0.90
2023-04-15T17:15:03.156Z,1.13
2023-04-15T17:17:35.824Z,1.52
2023-04-15T17:20:08.807Z,0.60
2023-04-15T17:22:41.564Z,0.50
2023-04-15T17:25:14.743Z,0.77
2023-04-15T17:27:47.236Z,1.23
2023-04-15T17:30:19.791Z,0.80
2023-04-15T17:32:52.375Z,0.95
2023-04-15T17:35:26.420Z,0.82
2023-04-15T17:37:59.137Z,1.20
2023-04-15T17:40:31.645Z,0.70
2023-04-15T17:43:04.366Z,1.15
2023-04-15T17:45:37.263Z,0.90
2023-04-15T17:48:10.489Z,1.02
2023-04-15T17:50:43.169Z,0.90
2023-04-15T17:53:16.911Z,1.00
2023-04-15T17:55:52.979Z,1.08
2023-04-15T17:58:28.715Z,0.60
2023-04-15T18:01:01.324Z,1.10
2023-04-15T18:03:33.996Z,0.90
2023-04-15T18:06:06.672Z,0.70
2023-04-15T18:08:39.285Z,0.93
2023-04-15T18:11:14.938Z,1.15
2023-04-15T18:13:47.399Z,0.77
2023-04-15T18:16:20.020Z,0.93
2023-04-15T18:18:52.737Z,1.27
2023-04-15T18:21:28.331Z,1.20
2023-04-15T18:24:00.915Z,1.77
2023-04-15T18:26:34.124Z,1.65
2023-04-15T18:29:07.082Z,1.25
2023-04-15T18:31:39.624Z,1.20
2023-04-15T18:34:12.758Z,1.15
2023-04-15T18:36:46.160Z,1.40
2023-04-15T18:39:18.701Z,1.38
2023-04-15T18:41:51.179Z,1.10
2023-04-15T18:44:23.707Z,1.73
2023-04-15T18:46:56.403Z,1.63
2023-04-15T18:49:30.158Z,1.63
2023-04-15T18:52:02.920Z,1.08
2023-04-15T18:54:36.661Z,0.93
2023-04-15T18:57:09.229Z,0.98
2023-04-15T18:59:42.654Z,1.63
2023-04-15T19:02:15.372Z,1.33
2023-04-15T19:04:47.931Z,1.00
2023-04-15T19:07:20.631Z,1.27
2023-04-15T19:09:55.289Z,0.90
2023-04-15T19:12:27.881Z,1.20
2023-04-15T19:15:00.743Z,1.00
2023-04-15T19:17:33.421Z,1.52
2023-04-15T19:20:06.798Z,0.77
2023-04-15T19:22:39.511Z,1.02
2023-04-15T19:25:12.477Z,1.27
2023-04-15T19:27:45.011Z,0.82
2023-04-15T19:30:17.578Z,0.73
2023-04-15T19:32:50.173Z,1.15
2023-04-15T19:35:22.732Z,0.93
2023-04-15T19:37:56.001Z,1.05
2023-04-15T19:40:28.590Z,0.93
2023-04-15T19:43:01.051Z,1.10
2023-04-15T19:45:34.315Z,1.25
2023-04-15T19:48:07.841Z,0.65
2023-04-15T19:50:43.544Z,1.33
2023-04-15T19:53:18.868Z,1.25
2023-04-15T19:55:51.365Z,1.15
2023-04-15T19:58:24.085Z,1.40
2023-04-15T20:00:58.138Z,1.48
2023-04-15T20:03:33.246Z,0.70
2023-04-15T20:06:05.901Z,0.80
2023-04-15T20:08:38.415Z,1.25
2023-04-15T20:11:12.219Z,1.05
2023-04-15T20:13:47.682Z,1.27
2023-04-15T20:16:20.558Z,1.23
2023-04-15T20:18:53.122Z,0.95
2023-04-15T20:21:25.807Z,1.13
2023-04-15T20:23:58.386Z,0.93
2023-04-15T20:26:31.397Z,1.20
2023-04-15T20:29:04.191Z,1.00
2023-04-15T20:31:37.326Z,1.58
2023-04-15T20:34:12.093Z,1.27
2023-04-15T20:36:44.770Z,1.30
2023-04-15T20:39:17.425Z,1.08
2023-04-15T20:41:50.660Z,0.70
2023-04-15T20:44:23.200Z,1.08
2023-04-15T20:46:56.105Z,1.15
2023-04-15T20:49:28.650Z,1.17
2023-04-15T20:52:02.247Z,1.00
2023-04-15T20:54:35.798Z,0.80
2023-04-15T20:57:08.304Z,0.90
2023-04-15T20:59:40.813Z,0.98
2023-04-15T21:02:13.437Z,1.20
2023-04-15T21:04:47.069Z,0.90
2023-04-15T21:07:19.612Z,1.05
2023-04-15T21:09:52.118Z,2.42
2023-04-15T21:12:24.651Z,0.80
2023-04-15T21:14:57.182Z,1.33
2023-04-15T21:17:29.761Z,0.90
2023-04-15T21:20:02.366Z,1.08
2023-04-15T21:22:34.931Z,1.25
2023-04-15T21:25:08.083Z,1.10
2023-04-15T21:27:40.660Z,0.82
2023-04-15T21:30:13.416Z,1.08
2023-04-15T21:32:45.993Z,1.30
2023-04-15T21:35:18.619Z,1.17
2023-04-15T21:37:51.134Z,1.20
2023-04-15T21:40:23.702Z,1.05
2023-04-15T21:42:56.272Z,1.20
2023-04-15T21:45:29.391Z,1.02
2023-04-15T21:48:08.010Z,0.90
2023-04-15T21:50:41.140Z,1.15
2023-04-15T21:53:13.680Z,1.80
2023-04-15T21:55:46.210Z,1.40
2023-04-15T21:58:18.720Z,1.60
2023-04-15T22:00:52.813Z,1.80
2023-04-15T22:03:28.824Z,1.95
2023-04-15T22:06:05.315Z,1.70
2023-04-15T22:08:48.376Z,1.83
2023-04-15T22:11:30.256Z,1.50
2023-04-15T22:14:02.871Z,1.20
2023-04-15T22:16:35.512Z,1.60
2023-04-15T22:19:08.184Z,1.40
2023-04-15T22:21:41.270Z,1.63
2023-04-15T22:24:38.141Z,1.55
2023-04-15T22:27:06.540Z,1.40
2023-04-15T22:29:39.057Z,1.55
2023-04-15T22:32:11.569Z,1.60
2023-04-15T22:34:44.129Z,1.52
2023-04-15T22:37:16.606Z,1.40
2023-04-15T22:39:51.937Z,1.50
2023-04-15T22:42:24.999Z,1.27
2023-04-15T22:44:57.567Z,1.40
2023-04-15T22:47:30.220Z,1.50
2023-04-15T22:50:02.804Z,1.25
2023-04-15T22:52:35.371Z,1.23
2023-04-15T22:55:08.737Z,1.40
2023-04-15T22:57:41.353Z,2.22
2023-04-15T23:00:14.125Z,1.30
2023-04-15T23:02:46.752Z,1.48
2023-04-15T23:05:19.492Z,0.93
2023-04-15T23:07:52.054Z,1.45
2023-04-15T23:10:24.558Z,1.38
2023-04-15T23:12:57.087Z,1.80
2023-04-15T23:15:29.689Z,1.83
2023-04-15T23:18:02.484Z,2.00
2023-04-15T23:20:36.123Z,1.90
2023-04-15T23:23:08.683Z,2.35
2023-04-15T23:25:42.084Z,1.95
2023-04-15T23:28:14.702Z,1.98
2023-04-15T23:30:47.403Z,4.22
2023-04-15T23:33:19.898Z,2.10
2023-04-15T23:35:52.503Z,1.63
2023-04-15T23:38:24.986Z,2.15
2023-04-15T23:40:57.528Z,2.30
2023-04-15T23:43:30.234Z,2.58
2023-04-15T23:46:02.783Z,1.75
2023-04-15T23:48:35.338Z,1.83
2023-04-15T23:51:08.153Z,1.73
2023-04-15T23:53:40.732Z,2.15
2023-04-15T23:56:13.276Z,1.70
2023-04-15T23:58:45.851Z,1.80
